Aeroporto :
LOGIN :

Iscrizione | Disclaimer

   EN    FR    IT 

 










Sommario :    VFR   VFR Marginale   IFR   IFR Intensivo   IFR Molto Intensivo
Visibilità : 
Base nubi : 
>= 8 km
>= 3000ft
5 / 8 km
1000 / 3000 ft
1500m / 5 km
500 / 1000 ft
800 / 1500m
200 / 500 ft
< 800m
< 200 ft
Simboli :   Temporali  Nebbia  Neve Forte  Precipitazioni Forti  Vento > 20 kt
SIGMETs :   Varie  Temporali  Ghiacco  Turbolenza  Onda orograficha  Ceneri Vulcaniche






- Altitudine del aeroporto : 388 ft
- Codice IATA : QYR


LFQB - Troyes Barberey

ULTIMO METAR :
  • 112130Z AUTO 16009KT 9999 BKN018/// BKN046/// OVC100/// ///TCU 05/04 Q1007

METARs OBSOLETI :
  • 112100Z AUTO 18009KT 9999 FEW015 BKN042 BKN082 05/04 Q1007
  • 112030Z AUTO 17008KT 9999 FEW015/// SCT031/// BKN039/// ///TCU 05/04 Q1007
  • 112000Z AUTO 18010KT 9999 FEW030 SCT072 BKN140 05/04 Q1008
  • 111930Z AUTO 19012KT CAVOK 05/04 Q1008
  • 111900Z AUTO 20011KT 9999 FEW016 BKN100 BKN230 05/04 Q1008
  • 111830Z AUTO 19010KT 9999 FEW016 SCT035 OVC220 05/04 Q1009

TAF N/A



MetMap, La meteo Aeronautica in un colpo d'occhio ! - Copyright ORBIFLY Dicembre 2007 - Disclaimer

ORBIFLY MET'MAP TEAM :

Programmazione e sviluppo : Alexandra Zaïnal
Concezione : Baudouin d'Aumeries
Aiuto per la programmazione : Marc-Olivier Méhu
Supporto tecnico e logistico : Manuel Goepfert
Aiuto per la traduzione : Arnaldo La Scala

Contatto : metmap@orbifly.com




FONTI E CREDITI :

   NOAA